Time;durP1;ratioP1;P1;durP2;ratioP2;P2;SDS_P1;SDS_P2;PMS_P1;PMS_P2;Temp;Humidity;BMP_temperature;BMP_pressure;BME280_temperature;BME280_humidity;BME280_pressure;Samples;Min_cycle;Max_cycle;Signal;HPM_P1;HPM_P2
2023/10/08 00:00:55;;;;;;;1.33;0.50;;;;;;;-145.63;54.21;39362.59;5043039;28;20052;-67
2023/10/08 00:03:21;;;;;;;4.22;0.57;;;;;;;-145.63;53.92;39403.66;5042755;28;20029;-68
2023/10/08 00:05:49;;;;;;;2.90;0.65;;;;;;;-145.63;53.57;39376.28;5042858;28;20040;-67
2023/10/08 00:08:16;;;;;;;3.35;0.80;;;;;;;-145.63;53.97;39388.00;5042713;28;20033;-67
2023/10/08 00:10:44;;;;;;;1.80;0.80;;;;;;;-145.63;53.46;39409.53;5042859;28;20021;-69
2023/10/08 00:13:12;;;;;;;0.50;0.50;;;;;;;-145.63;53.36;39376.28;5043030;28;20075;-67
2023/10/08 00:15:50;;;;;;;3.85;0.70;;;;;;;-145.63;53.82;39393.88;5037300;28;20041;-68
2023/10/08 00:18:17;;;;;;;0.70;0.70;;;;;;;-145.63;53.72;39341.06;5040850;28;20060;-66
2023/10/08 00:20:47;;;;;;;1.33;0.40;;;;;;;-145.63;52.94;39348.88;5046319;28;20033;-66
2023/10/08 00:23:17;;;;;;;1.33;0.47;;;;;;;-145.63;53.63;39374.31;5037824;28;20075;-65
2023/10/08 00:25:47;;;;;;;0.80;0.40;;;;;;;-145.63;53.32;39389.97;5027205;28;20026;-66
2023/10/08 00:28:17;;;;;;;0.50;0.50;;;;;;;-145.63;53.41;39419.31;5027064;28;20113;-66
2023/10/08 00:30:43;;;;;;;0.22;0.22;;;;;;;-145.63;52.31;39407.56;5027341;28;20053;-67
2023/10/08 00:33:14;;;;;;;2.28;0.68;;;;;;;-145.63;52.72;39366.50;5025815;28;20329;-67
2023/10/08 00:35:41;;;;;;;0.55;0.55;;;;;;;-145.63;52.55;39376.28;5027134;28;20025;-67
2023/10/08 00:38:20;;;;;;;0.63;0.63;;;;;;;-145.63;52.42;39386.06;5026504;28;20045;-67
2023/10/08 00:40:50;;;;;;;1.75;0.60;;;;;;;-145.63;52.14;39393.88;5026957;28;20088;-65
2023/10/08 00:43:32;;;;;;;4.55;0.65;;;;;;;-145.63;52.69;39415.38;5046242;28;20055;-69
2023/10/08 00:45:59;;;;;;;0.88;0.55;;;;;;;-145.63;52.81;39389.97;5044087;28;20033;-66
2023/10/08 00:48:29;;;;;;;1.08;0.55;;;;;;;-145.63;51.62;39376.28;5037736;28;20041;-68
2023/10/08 00:51:10;;;;;;;1.67;0.60;;;;;;;-145.63;51.34;39380.19;5026579;28;20317;-65
2023/10/08 00:53:39;;;;;;;0.30;0.30;;;;;;;-145.63;51.16;39380.19;5026677;28;20030;-65
2023/10/08 00:56:13;;;;;;;2.03;0.65;;;;;;;-145.63;52.24;39364.53;5028979;28;20057;-66
2023/10/08 00:58:46;;;;;;;0.38;0.38;;;;;;;-145.63;50.44;39431.03;5025406;28;20022;-65
2023/10/08 01:01:16;;;;;;;1.85;0.47;;;;;;;-145.63;50.49;39372.34;5026512;28;20310;-65
2023/10/08 01:03:44;;;;;;;2.50;0.50;;;;;;;-145.63;50.45;39391.91;5026405;28;20033;-66
2023/10/08 01:06:12;;;;;;;0.75;0.30;;;;;;;-145.63;50.28;39372.34;5026283;28;20469;-67
2023/10/08 01:08:45;;;;;;;2.08;0.32;;;;;;;-145.63;50.00;39401.69;5026530;28;20299;-65
2023/10/08 01:11:32;;;;;;;1.13;0.60;;;;;;;-145.63;50.03;39450.59;5025016;28;20220;-66
2023/10/08 01:13:58;;;;;;;3.22;0.50;;;;;;;-145.63;49.57;39399.75;5024981;28;20033;-66
2023/10/08 01:16:27;;;;;;;2.50;0.60;;;;;;;-145.63;48.89;39352.81;5035951;28;20034;-65
2023/10/08 01:18:54;;;;;;;1.55;0.60;;;;;;;-145.63;49.16;39389.97;5026990;28;20048;-65
2023/10/08 01:21:40;;;;;;;1.85;0.68;;;;;;;-145.63;48.90;39411.47;5026108;28;20357;-67
2023/10/08 01:24:06;;;;;;;2.33;0.70;;;;;;;-145.63;49.35;39362.59;5025911;28;20057;-66
2023/10/08 01:26:39;;;;;;;2.08;0.85;;;;;;;-145.63;48.71;39386.06;5026045;28;20029;-67
2023/10/08 01:29:09;;;;;;;0.63;0.43;;;;;;;-145.63;49.71;39372.34;5025845;28;20083;-66
2023/10/08 01:31:36;;;;;;;0.80;0.40;;;;;;;-145.63;49.65;39395.84;5026175;28;20025;-66
2023/10/08 01:34:04;;;;;;;0.75;0.50;;;;;;;-145.63;50.01;39376.28;5025826;28;20291;-66
2023/10/08 01:36:31;;;;;;;0.47;0.30;;;;;;;-145.63;50.85;39364.53;5025931;28;20088;-66
2023/10/08 01:38:57;;;;;;;0.57;0.40;;;;;;;-145.63;50.62;39413.44;5025798;28;20026;-66
2023/10/08 01:41:30;;;;;;;2.47;0.50;;;;;;;-145.63;50.87;39399.75;5029859;28;20021;-65
2023/10/08 01:43:59;;;;;;;2.33;0.40;;;;;;;-145.63;51.77;39395.84;5045396;28;20049;-66
2023/10/08 01:46:26;;;;;;;1.15;0.30;;;;;;;-145.63;51.52;39415.38;5045668;28;20025;-65
2023/10/08 01:49:04;;;;;;;2.03;0.40;;;;;;;-145.63;52.12;39362.59;5045382;28;20028;-66
2023/10/08 01:51:44;;;;;;;4.32;0.43;;;;;;;-145.63;50.99;39389.97;5045483;28;20025;-65
2023/10/08 01:54:10;;;;;;;0.30;0.30;;;;;;;-145.63;51.04;39423.22;5045288;28;20310;-67
2023/10/08 01:56:43;;;;;;;0.52;0.30;;;;;;;-145.63;51.01;39389.97;5045602;28;20017;-67
2023/10/08 01:59:15;;;;;;;0.90;0.45;;;;;;;-145.63;51.35;39389.97;5045367;28;20017;-65
2023/10/08 02:01:42;;;;;;;2.92;0.45;;;;;;;-145.63;51.07;39417.34;5027430;28;20025;-66
2023/10/08 02:04:11;;;;;;;1.90;0.50;;;;;;;-145.63;50.70;39382.13;5045016;28;20214;-67
2023/10/08 02:06:39;;;;;;;1.98;0.77;;;;;;;-145.63;50.28;39415.38;5045132;28;20067;-68
2023/10/08 02:09:09;;;;;;;0.90;0.47;;;;;;;-145.63;50.01;39397.78;5044953;28;20032;-65
2023/10/08 02:11:50;;;;;;;1.13;0.43;;;;;;;-145.63;50.43;39368.44;5045093;28;20036;-65
2023/10/08 02:14:18;;;;;;;2.22;0.80;;;;;;;-145.63;50.37;39384.09;5044261;28;20092;-65
2023/10/08 02:16:44;;;;;;;0.68;0.68;;;;;;;-145.63;50.86;39372.34;5036733;28;20075;-66
2023/10/08 02:19:13;;;;;;;1.30;0.70;;;;;;;-145.63;51.04;39376.28;5024813;28;20033;-65
2023/10/08 02:21:40;;;;;;;1.88;0.65;;;;;;;-145.63;51.62;39380.19;5025299;28;20044;-66
2023/10/08 02:24:11;;;;;;;0.35;0.35;;;;;;;-145.63;52.24;39372.34;5024848;28;20025;-67
2023/10/08 02:26:37;;;;;;;2.33;0.50;;;;;;;-145.63;52.81;39407.56;5025136;28;20097;-68
2023/10/08 02:29:10;;;;;;;1.95;0.60;;;;;;;-145.63;53.17;39395.84;5024784;28;20636;-66
2023/10/08 02:31:40;;;;;;;5.18;0.65;;;;;;;-145.63;52.67;39388.00;5025064;28;20032;-67
2023/10/08 02:34:09;;;;;;;0.40;0.40;;;;;;;-145.63;52.88;39360.63;5027162;28;20053;-66
2023/10/08 02:36:42;;;;;;;3.17;0.50;;;;;;;-145.63;53.69;39384.09;5035812;28;20033;-65
2023/10/08 02:39:20;;;;;;;0.45;0.40;;;;;;;-145.63;54.15;39380.19;5024429;28;20026;-66
2023/10/08 02:41:47;;;;;;;1.38;0.65;;;;;;;-145.63;53.80;39388.00;5031887;28;20021;-67
2023/10/08 02:44:14;;;;;;;1.27;0.60;;;;;;;-145.63;54.04;39221.78;5044014;28;20033;-66
2023/10/08 02:46:47;;;;;;;0.77;0.52;;;;;;;-145.63;54.05;39376.28;5044372;28;20071;-68
2023/10/08 02:49:20;;;;;;;1.80;0.60;;;;;;;-145.63;53.48;39391.91;5044169;28;20025;-68
2023/10/08 02:51:50;;;;;;;1.33;0.50;;;;;;;-145.63;52.96;39384.09;5044462;28;20031;-66
2023/10/08 02:54:32;;;;;;;1.30;0.70;;;;;;;-145.63;52.37;39423.22;5044075;28;20438;-66
2023/10/08 02:57:02;;;;;;;;;;;;;;;-145.63;52.40;39380.19;5044780;28;20026;-67
2023/10/08 02:59:42;;;;;;;0.88;0.70;;;;;;;-145.63;51.73;39431.03;5044092;28;19909;-66
2023/10/08 03:02:42;;;;;;;0.75;0.50;;;;;;;-145.63;52.27;39403.66;5042771;28;20026;-65
2023/10/08 03:05:00;;;;;;;0.77;0.70;;;;;;;-145.63;51.67;39417.34;5042784;28;20044;-66
2023/10/08 03:07:32;;;;;;;1.35;0.80;;;;;;;-145.63;51.33;39407.56;5044017;28;20025;-66
2023/10/08 03:10:17;;;;;;;2.13;0.85;;;;;;;-145.63;52.06;39393.88;5043718;28;20045;-67
2023/10/08 03:12:46;;;;;;;0.70;0.70;;;;;;;-145.63;52.17;39378.22;5036039;28;20029;-67
2023/10/08 03:15:14;;;;;;;0.63;0.63;;;;;;;-145.63;51.50;39388.00;5029174;28;20060;-66
2023/10/08 03:17:48;;;;;;;2.17;0.90;;;;;;;-145.63;51.36;39411.47;5032735;28;20025;-67
2023/10/08 03:23:12;;;;;;;2.20;0.70;;;;;;;-145.63;51.84;39380.19;5024019;28;20290;-65
2023/10/08 03:25:42;;;;;;;1.15;0.80;;;;;;;-145.63;51.18;39374.31;5024047;28;20026;-64
2023/10/08 03:28:09;;;;;;;1.70;0.65;;;;;;;-145.63;51.59;39462.31;5023585;28;20053;-63
2023/10/08 03:30:48;;;;;;;5.60;2.40;;;;;;;-145.63;51.37;39393.88;5023801;28;20073;-64
2023/10/08 03:33:22;;;;;;;1.40;0.73;;;;;;;-145.63;51.00;39280.44;5023636;28;20127;-64
2023/10/08 03:35:54;;;;;;;1.25;0.60;;;;;;;-145.63;51.59;39397.78;5023870;28;20085;-66
2023/10/08 03:38:44;;;;;;;1.42;0.50;;;;;;;-145.63;51.29;39376.28;5023694;28;20498;-65
2023/10/08 03:41:16;;;;;;;2.30;0.50;;;;;;;-145.63;51.71;39397.78;5025796;28;20034;-65
2023/10/08 03:44:06;;;;;;;3.13;0.80;;;;;;;-145.63;51.68;39395.84;5043619;28;20096;-64
2023/10/08 03:46:39;;;;;;;0.65;0.40;;;;;;;-145.63;52.01;39401.69;5043442;28;20063;-65
2023/10/08 03:49:24;;;;;;;1.70;0.77;;;;;;;-145.63;51.86;39391.91;5042440;28;20035;-66
2023/10/08 03:51:52;;;;;;;2.90;0.80;;;;;;;-145.63;52.11;39372.34;5043375;28;20025;-66
2023/10/08 03:54:34;;;;;;;2.00;0.80;;;;;;;-145.63;51.68;39393.88;5043339;28;20040;-65
2023/10/08 03:57:00;;;;;;;3.10;0.90;;;;;;;-145.63;51.73;39366.50;5043076;28;20033;-66
2023/10/08 03:59:34;;;;;;;1.13;0.70;;;;;;;-145.63;52.22;39411.47;5043206;28;20017;-66
2023/10/08 04:02:14;;;;;;;3.17;0.77;;;;;;;-145.63;52.47;39391.91;5043118;28;20032;-66
2023/10/08 04:04:57;;;;;;;2.47;0.80;;;;;;;-145.63;52.27;39378.22;5043289;28;20032;-65
2023/10/08 04:08:05;;;;;;;3.03;0.80;;;;;;;-145.63;52.39;39401.69;5042900;28;20036;-65
2023/10/08 04:13:09;;;;;;;3.17;0.90;;;;;;;-145.63;51.62;39411.47;5043239;28;20033;-65
2023/10/08 04:15:40;;;;;;;0.77;0.70;;;;;;;-145.63;51.25;39407.56;5035295;28;20049;-65
2023/10/08 04:18:11;;;;;;;0.82;0.70;;;;;;;-145.63;51.85;39429.06;5030870;28;20093;-66
2023/10/08 04:23:04;;;;;;;2.25;0.80;;;;;;;-145.63;51.65;39429.06;5023594;28;20409;-66
2023/10/08 04:25:32;;;;;;;1.10;0.80;;;;;;;-145.63;51.99;39419.31;5023374;28;20089;-66
2023/10/08 04:28:01;;;;;;;2.22;0.73;;;;;;;-145.63;52.25;39391.91;5023015;28;20033;-66
2023/10/08 04:30:36;;;;;;;1.25;0.90;;;;;;;-145.63;52.24;39391.91;5025932;28;20091;-67
2023/10/08 04:33:07;;;;;;;1.13;0.80;;;;;;;-145.63;52.27;39407.56;5031689;28;20097;-67
2023/10/08 04:35:47;;;;;;;0.75;0.68;;;;;;;-145.63;52.99;39415.38;5023285;28;20096;-64
2023/10/08 04:38:19;;;;;;;1.35;0.60;;;;;;;-145.63;53.34;39427.13;5022933;28;20034;-65
2023/10/08 04:40:53;;;;;;;3.67;0.90;;;;;;;-145.63;54.09;39411.47;5023235;28;20026;-66
2023/10/08 04:43:24;;;;;;;3.65;0.95;;;;;;;-145.63;54.77;39388.00;5023181;28;20033;-66
2023/10/08 04:45:51;;;;;;;2.38;0.70;;;;;;;-145.63;54.84;39446.69;5024779;28;20022;-66
2023/10/08 04:48:20;;;;;;;2.40;0.80;;;;;;;-145.63;54.77;39391.91;5035287;28;20048;-66
2023/10/08 04:50:58;;;;;;;0.90;0.82;;;;;;;-145.63;54.60;39393.88;5028445;28;20081;-66
2023/10/08 04:53:32;;;;;;;1.35;0.82;;;;;;;-145.63;54.09;39423.22;5023163;28;20026;-64
2023/10/08 04:56:05;;;;;;;2.40;0.90;;;;;;;-145.63;54.61;39401.69;5022789;28;20093;-66
2023/10/08 04:58:33;;;;;;;1.75;0.73;;;;;;;-145.63;54.55;39380.19;5022927;28;20025;-66
2023/10/08 05:01:20;;;;;;;0.77;0.73;;;;;;;-145.63;54.48;39407.56;5024319;28;20033;-66
2023/10/08 05:06:50;;;;;;;2.47;1.08;;;;;;;-145.63;54.11;39395.84;5033143;28;20053;-67
2023/10/08 05:17:21;;;;;;;2.45;1.23;;;;;;;-145.63;53.54;39389.97;5035370;28;20029;-65
2023/10/08 05:28:09;;;;;;;1.00;0.80;;;;;;;-145.63;53.44;39409.53;5026223;28;20026;-66
2023/10/08 05:30:41;;;;;;;2.72;0.80;;;;;;;-145.63;53.32;39399.75;5025611;28;20053;-66
2023/10/08 05:33:49;;;;;;;4.47;1.10;;;;;;;-145.63;53.34;39384.09;5025930;28;20026;-65
2023/10/08 05:36:10;;;;;;;1.67;0.90;;;;;;;-145.63;53.69;39397.78;5025759;28;20053;-66
2023/10/08 06:13:43;;;;;;;2.22;0.85;;;;;;;-145.63;51.13;39399.75;5042725;28;20079;-65
2023/10/08 06:16:09;;;;;;;3.53;0.90;;;;;;;-145.63;50.83;39401.69;5031761;28;20038;-64
2023/10/08 06:18:35;;;;;;;1.33;0.80;;;;;;;-145.63;51.38;39380.19;5024509;28;20295;-65
2023/10/08 06:21:15;;;;;;;2.45;1.10;;;;;;;-145.63;51.86;39409.53;5042441;28;20033;-65
2023/10/08 06:23:42;;;;;;;2.67;0.90;;;;;;;-145.63;51.33;39438.84;5036840;28;20052;-65
2023/10/08 06:28:38;;;;;;;4.40;1.42;;;;;;;-145.63;51.43;39344.97;5024990;28;20037;-64
2023/10/08 06:31:07;;;;;;;1.98;1.42;;;;;;;-145.63;51.38;39389.97;5024846;28;20033;-66
2023/10/08 06:33:37;;;;;;;1.20;0.70;;;;;;;-145.63;50.85;39354.75;5037791;28;20032;-65
2023/10/08 06:36:13;;;;;;;1.45;0.98;;;;;;;-145.63;50.96;39382.13;5041372;28;20044;-66
2023/10/08 06:38:41;;;;;;;1.85;1.10;;;;;;;-145.63;51.41;39356.72;5043895;28;20101;-66
2023/10/08 06:41:10;;;;;;;1.23;0.90;;;;;;;-145.63;51.52;39372.34;5043915;28;20025;-65
2023/10/08 06:43:36;;;;;;;5.03;0.85;;;;;;;-145.63;51.18;39391.91;5043951;28;20091;-65
2023/10/08 06:46:03;;;;;;;0.80;0.80;;;;;;;-145.63;51.55;39393.88;5041139;28;20127;-65
2023/10/08 06:48:29;;;;;;;2.20;1.00;;;;;;;-145.63;51.75;39362.59;5039375;28;20028;-66
2023/10/08 06:51:07;;;;;;;4.90;1.25;;;;;;;-145.63;51.26;39337.16;5042513;28;20029;-64
2023/10/08 06:53:34;;;;;;;2.15;0.85;;;;;;;-145.63;51.56;39364.53;5041617;28;20025;-66
2023/10/08 06:56:05;;;;;;;1.75;0.98;;;;;;;-145.63;51.87;39344.97;5043562;28;20013;-66
2023/10/08 06:58:34;;;;;;;2.80;0.80;;;;;;;-145.63;51.12;39329.34;5041025;28;20043;-66
2023/10/08 07:01:08;;;;;;;2.53;0.93;;;;;;;-145.63;51.60;39360.63;5043441;28;20073;-67
2023/10/08 07:03:37;;;;;;;4.78;0.95;;;;;;;-145.63;50.90;39358.66;5041464;28;20025;-66
2023/10/08 07:06:16;;;;;;;2.63;1.00;;;;;;;-145.63;51.14;39366.50;5043204;28;20020;-68
2023/10/08 07:08:46;;;;;;;4.53;1.00;;;;;;;-145.63;50.16;39454.50;5041134;28;20298;-68
2023/10/08 07:11:12;;;;;;;1.80;1.00;;;;;;;-145.63;50.37;39380.19;5041057;28;20051;-67
2023/10/08 07:13:40;;;;;;;1.50;0.70;;;;;;;-145.63;50.33;39366.50;5040900;28;20025;-65
2023/10/08 07:16:11;;;;;;;3.70;1.08;;;;;;;-145.63;49.86;39368.44;5039883;28;20361;-66
2023/10/08 07:18:38;;;;;;;2.08;0.98;;;;;;;-145.63;50.22;39376.28;5040462;28;20089;-66
2023/10/08 07:21:12;;;;;;;2.17;0.82;;;;;;;-145.63;50.16;39384.09;5037213;28;20283;-66
2023/10/08 07:23:59;;;;;;;1.85;0.70;;;;;;;-145.63;50.84;39376.28;5041046;28;20075;-66
2023/10/08 07:26:39;;;;;;;0.90;0.80;;;;;;;-145.63;50.73;39321.50;5042168;28;20214;-65
2023/10/08 07:29:09;;;;;;;0.85;0.80;;;;;;;-145.63;50.78;39331.28;5041859;28;20021;-66
2023/10/08 07:31:41;;;;;;;1.65;0.90;;;;;;;-145.63;50.76;39348.88;5040406;28;20025;-66
2023/10/08 07:34:18;;;;;;;2.15;0.70;;;;;;;-145.63;50.62;39366.50;5042843;28;20018;-67
2023/10/08 07:36:46;;;;;;;1.92;1.10;;;;;;;-145.63;50.47;39368.44;5042601;28;20025;-66
2023/10/08 07:41:59;;;;;;;1.95;0.88;;;;;;;-145.63;49.96;39344.97;5042109;28;20074;-64
2023/10/08 07:44:28;;;;;;;3.25;0.90;;;;;;;-145.63;49.52;39362.59;5042951;28;20037;-65
2023/10/08 07:46:54;;;;;;;6.15;0.95;;;;;;;-145.63;48.33;39368.44;5042822;28;20094;-65
2023/10/08 07:49:22;;;;;;;3.22;0.80;;;;;;;-145.63;48.27;39337.16;5040371;28;20485;-66
2023/10/08 07:51:52;;;;;;;1.08;0.80;;;;;;;-145.63;48.39;39376.28;5036742;28;20063;-66
2023/10/08 07:54:22;;;;;;;1.40;0.90;;;;;;;-145.63;48.02;39346.94;5032312;28;20048;-66
2023/10/08 07:57:08;;;;;;;1.33;1.08;;;;;;;-145.63;48.69;39343.03;5043171;28;20025;-68
2023/10/08 07:59:41;;;;;;;6.35;1.00;;;;;;;-145.63;47.36;39386.06;5041602;28;20033;-65
2023/10/08 08:02:11;;;;;;;3.22;1.10;;;;;;;-145.63;47.85;39360.63;5023106;28;20081;-65
2023/10/08 08:04:39;;;;;;;1.85;0.90;;;;;;;-145.63;48.41;39368.44;5022261;28;20057;-65
2023/10/08 08:07:06;;;;;;;0.88;0.77;;;;;;;-145.63;47.71;39343.03;5023378;28;20025;-65
2023/10/08 08:09:37;;;;;;;1.63;0.95;;;;;;;-145.63;47.66;39356.72;5023375;28;20022;-65
2023/10/08 08:12:10;;;;;;;2.85;0.82;;;;;;;-145.63;48.69;39386.06;5023216;28;20291;-65
2023/10/08 08:14:38;;;;;;;2.05;1.00;;;;;;;-145.63;48.85;39331.28;5024366;28;20063;-67
2023/10/08 08:17:13;;;;;;;1.65;0.70;;;;;;;-145.63;48.88;39356.72;5028268;28;20036;-67
2023/10/08 08:19:52;;;;;;;1.52;0.80;;;;;;;-145.63;49.58;39125.94;5038229;28;20076;-66
2023/10/08 08:22:30;;;;;;;5.43;1.10;;;;;;;-145.63;49.23;39358.66;5029971;28;20057;-66
2023/10/08 08:25:15;;;;;;;2.00;0.95;;;;;;;-145.63;47.97;39364.53;5039927;28;20033;-67
2023/10/08 08:27:46;;;;;;;1.40;0.90;;;;;;;-145.63;48.08;39315.66;5042880;28;20032;-68
2023/10/08 08:30:15;;;;;;;3.08;0.88;;;;;;;-145.63;48.14;39344.97;5034250;28;20026;-68
2023/10/08 08:32:47;;;;;;;4.03;1.05;;;;;;;-145.63;47.32;39344.97;5035907;28;20101;-67
2023/10/08 08:35:16;;;;;;;3.13;1.00;;;;;;;-145.63;47.53;39341.06;5042917;28;20045;-67
2023/10/08 08:37:46;;;;;;;3.30;1.17;;;;;;;-145.63;46.35;39319.56;5044400;28;20025;-69
2023/10/08 08:40:18;;;;;;;3.22;0.98;;;;;;;-145.63;46.48;39366.50;5045648;28;20083;-68
2023/10/08 08:42:50;;;;;;;1.60;0.88;;;;;;;-145.63;46.69;39356.72;5046824;28;20064;-69
2023/10/08 08:45:20;;;;;;;1.27;0.88;;;;;;;-145.63;46.28;39360.63;5046632;28;20021;-66
2023/10/08 08:47:45;;;;;;;3.72;1.02;;;;;;;-145.63;46.52;39368.44;5046046;28;20021;-66
2023/10/08 08:50:11;;;;;;;1.52;1.02;;;;;;;-145.63;46.90;39343.03;5044266;28;20024;-68
2023/10/08 08:52:41;;;;;;;3.83;1.27;;;;;;;-145.63;46.38;39337.16;5044811;28;20032;-68
2023/10/08 08:55:14;;;;;;;8.55;1.10;;;;;;;-145.63;46.54;39395.84;5045874;28;20029;-66
2023/10/08 08:57:46;;;;;;;2.13;1.00;;;;;;;-145.63;46.41;39341.06;5043695;28;20324;-69
2023/10/08 09:00:14;;;;;;;3.17;1.10;;;;;;;-145.63;46.35;39348.88;5045914;28;20055;-68
2023/10/08 09:02:41;;;;;;;1.73;0.93;;;;;;;-145.63;46.06;39356.72;5045951;28;20029;-65
2023/10/08 09:05:34;;;;;;;5.70;1.33;;;;;;;-145.63;46.47;39354.75;5045935;28;20026;-67
2023/10/08 09:07:56;;;;;;;1.58;0.90;;;;;;;-145.63;46.65;39364.53;5044799;28;20036;-66
2023/10/08 09:10:29;;;;;;;2.35;0.98;;;;;;;-145.63;47.00;39344.97;5039613;28;20025;-67
2023/10/08 09:12:59;;;;;;;4.25;1.90;;;;;;;-145.63;47.38;39335.19;5042829;28;20104;-66
2023/10/08 09:15:26;;;;;;;3.53;1.25;;;;;;;-145.63;47.07;39352.81;5040972;28;20041;-65
2023/10/08 09:17:56;;;;;;;1.40;1.08;;;;;;;-145.63;48.09;39348.88;5042481;28;20022;-66
2023/10/08 09:20:22;;;;;;;2.03;1.00;;;;;;;-145.63;47.97;39356.72;5024717;28;20025;-67
2023/10/08 09:23:17;;;;;;;4.53;1.52;;;;;;;-145.63;48.37;39341.06;5043791;28;20298;-65
2023/10/08 09:25:44;;;;;;;2.85;1.42;;;;;;;-145.63;48.94;39366.50;5043725;28;20101;-65
2023/10/08 09:28:14;;;;;;;2.22;1.10;;;;;;;-145.63;49.54;39405.59;5043647;28;20021;-64
2023/10/08 09:30:40;;;;;;;2.60;1.50;;;;;;;-145.63;49.12;39341.06;5035960;28;20052;-65
2023/10/08 09:33:08;;;;;;;1.63;1.05;;;;;;;-145.63;49.31;39343.03;5042485;28;20242;-65
2023/10/08 09:35:34;;;;;;;5.30;1.00;;;;;;;-145.63;49.34;39352.81;5041563;28;20036;-66
2023/10/08 09:38:03;;;;;;;2.40;0.90;;;;;;;-145.63;49.74;39360.63;5039257;28;20025;-66
2023/10/08 09:40:29;;;;;;;1.05;0.77;;;;;;;-145.63;49.52;39368.44;5045051;28;20029;-66
2023/10/08 09:42:56;;;;;;;2.63;0.93;;;;;;;-145.63;49.16;39358.66;5045058;28;20025;-64
2023/10/08 09:45:22;;;;;;;1.85;1.00;;;;;;;-145.63;49.29;39337.16;5042580;28;20025;-66
2023/10/08 09:47:55;;;;;;;1.67;0.90;;;;;;;-145.63;48.04;39325.41;5045038;28;20163;-66
2023/10/08 09:50:32;;;;;;;1.52;0.70;;;;;;;-145.63;48.83;39331.28;5042050;28;20559;-67
2023/10/08 09:53:16;;;;;;;1.77;1.00;;;;;;;-145.63;47.66;39298.03;5044590;28;20031;-67
2023/10/08 09:56:05;;;;;;;1.33;0.75;;;;;;;-145.63;47.62;39360.63;5041208;28;20202;-67
2023/10/08 09:58:31;;;;;;;2.38;0.95;;;;;;;-145.63;47.44;39350.84;5043390;28;20094;-67
2023/10/08 10:00:58;;;;;;;3.00;0.90;;;;;;;-145.63;48.03;39358.66;5044550;28;20028;-67
2023/10/08 10:03:27;;;;;;;1.80;0.93;;;;;;;-145.63;47.81;39354.75;5044800;28;20064;-66
2023/10/08 10:05:58;;;;;;;3.60;0.90;;;;;;;-145.63;48.25;39352.81;5044933;28;20052;-66
2023/10/08 10:08:26;;;;;;;1.77;1.00;;;;;;;-145.63;47.88;39354.75;5045165;28;20035;-67
2023/10/08 10:11:04;;;;;;;1.38;0.70;;;;;;;-145.63;48.47;39343.03;5045052;28;20088;-65
2023/10/08 10:13:38;;;;;;;4.10;0.90;;;;;;;-145.63;48.30;39389.97;5044649;28;20025;-68
2023/10/08 10:16:07;;;;;;;1.15;0.70;;;;;;;-145.63;47.87;39364.53;5040295;28;20108;-71
2023/10/08 10:18:34;;;;;;;2.70;0.90;;;;;;;-145.63;48.67;39313.69;5035008;28;20033;-69
2023/10/08 10:21:12;;;;;;;3.47;0.80;;;;;;;-145.63;48.45;39341.06;5029380;28;20053;-69
2023/10/08 10:23:43;;;;;;;2.22;0.80;;;;;;;-145.63;48.38;39360.63;5044866;28;20068;-64
2023/10/08 10:26:26;;;;;;;0.87;0.83;;;;;;;-145.63;49.40;39366.50;5044525;28;20025;-67
2023/10/08 10:29:10;;;;;;;1.50;1.20;;;;;;;-145.63;49.83;39337.16;5044761;28;20028;-69
2023/10/08 10:31:44;;;;;;;2.10;1.08;;;;;;;-145.63;50.15;39352.81;5044986;28;20066;-68
2023/10/08 10:34:12;;;;;;;2.13;0.93;;;;;;;-145.63;50.01;39350.84;5044469;28;20210;-66
2023/10/08 10:36:40;;;;;;;1.75;1.05;;;;;;;-145.63;50.41;39354.75;5044788;28;20116;-70
2023/10/08 10:39:16;;;;;;;1.67;0.90;;;;;;;-145.63;50.70;39419.31;5040015;28;20025;-69
2023/10/08 10:41:44;;;;;;;1.85;1.00;;;;;;;-145.63;52.04;38781.75;5041452;28;20033;-70
2023/10/08 10:44:14;;;;;;;1.88;1.20;;;;;;;-145.63;52.15;39354.75;5043592;28;20326;-68
2023/10/08 10:46:50;;;;;;;1.45;1.08;;;;;;;-145.63;52.28;39337.16;5044081;28;20086;-68
2023/10/08 10:52:17;;;;;;;2.67;1.02;;;;;;;-145.63;52.56;39401.69;5016185;28;20230;-67
2023/10/08 10:54:58;;;;;;;3.22;1.35;;;;;;;-145.63;54.14;39368.44;5042548;28;20021;-66
2023/10/08 10:57:34;;;;;;;2.00;1.55;;;;;;;-145.63;53.78;39388.00;5041010;28;20052;-67
2023/10/08 11:00:47;;;;;;;1.35;1.00;;;;;;;-145.63;53.91;39411.47;5041168;28;20029;-66
2023/10/08 11:02:56;;;;;;;1.67;1.20;;;;;;;-145.63;54.00;39376.28;5043218;28;20033;-66
2023/10/08 11:05:28;;;;;;;1.45;1.00;;;;;;;-145.63;54.21;39391.91;5039853;28;20184;-69
2023/10/08 11:08:05;;;;;;;1.77;0.93;;;;;;;-145.63;55.55;39372.34;5043351;28;20047;-68
2023/10/08 11:10:38;;;;;;;0.98;0.88;;;;;;;-145.63;54.83;39360.63;5039130;28;20030;-67
2023/10/08 11:13:14;;;;;;;1.30;1.20;;;;;;;-145.63;55.49;39323.47;5039927;28;20088;-68
2023/10/08 11:15:41;;;;;;;1.80;1.00;;;;;;;-145.63;55.64;39352.81;5038926;28;20038;-67
2023/10/08 11:18:11;;;;;;;1.42;0.90;;;;;;;-145.63;56.05;39327.38;5037681;28;20282;-68
2023/10/08 11:20:39;;;;;;;2.33;1.00;;;;;;;-145.63;56.43;39356.72;5043281;28;20033;-66
2023/10/08 11:23:18;;;;;;;2.58;1.50;;;;;;;-145.63;56.65;39329.34;5043164;28;20028;-68
2023/10/08 11:26:05;;;;;;;0.95;0.90;;;;;;;-145.63;56.43;39378.22;5043384;28;20037;-69
2023/10/08 11:28:34;;;;;;;2.00;0.90;;;;;;;-145.63;56.40;39331.28;5041122;28;20053;-68
2023/10/08 11:31:13;;;;;;;1.35;0.85;;;;;;;-145.63;57.97;39344.97;5043313;28;20025;-67
2023/10/08 11:33:41;;;;;;;1.40;0.90;;;;;;;-145.63;56.32;39137.69;5042230;28;20218;-67
2023/10/08 11:36:27;;;;;;;2.25;1.00;;;;;;;-145.63;56.53;39335.19;5042539;28;20025;-67
2023/10/08 11:39:07;;;;;;;1.67;1.10;;;;;;;-145.63;56.68;39260.88;5040326;28;20199;-68
2023/10/08 11:41:49;;;;;;;1.20;1.10;;;;;;;-145.63;56.33;39307.81;5035475;28;20040;-67
2023/10/08 11:44:19;;;;;;;2.15;0.80;;;;;;;-145.63;56.94;39335.19;5033664;28;20302;-66
2023/10/08 11:46:51;;;;;;;1.85;0.95;;;;;;;-145.63;56.02;39341.06;5037941;28;20041;-66
2023/10/08 11:49:25;;;;;;;;;;;;;;;-145.63;56.67;39325.41;5042978;28;20021;-66
2023/10/08 11:51:52;;;;;;;2.17;1.13;;;;;;;-145.63;57.15;39470.16;5038926;28;19913;-70
2023/10/08 11:54:20;;;;;;;2.05;1.00;;;;;;;-145.63;56.80;39380.19;5037889;28;20089;-68
2023/10/08 11:56:47;;;;;;;1.83;1.05;;;;;;;-145.63;56.60;39356.72;5040517;28;20210;-69
2023/10/08 11:59:13;;;;;;;2.13;1.35;;;;;;;-145.63;57.20;39315.66;5041899;28;20056;-69
2023/10/08 12:01:46;;;;;;;2.28;1.08;;;;;;;-145.63;56.68;39358.66;5036738;28;20249;-69
2023/10/08 12:04:16;;;;;;;1.30;1.20;;;;;;;-145.63;56.72;39368.44;5041613;28;20079;-68
2023/10/08 12:06:51;;;;;;;1.50;1.02;;;;;;;-145.63;56.07;39346.94;5040433;28;20233;-68
2023/10/08 12:09:21;;;;;;;1.30;1.20;;;;;;;-145.63;56.85;39354.75;5040097;28;20325;-68
2023/10/08 12:11:48;;;;;;;1.17;0.90;;;;;;;-145.63;55.93;39352.81;5044996;28;20022;-67
2023/10/08 12:14:14;;;;;;;2.67;0.98;;;;;;;-145.63;56.90;39389.97;5046363;28;20700;-68
2023/10/08 12:16:41;;;;;;;3.45;1.13;;;;;;;-145.63;56.34;39360.63;5044355;28;20025;-66
2023/10/08 12:19:17;;;;;;;2.53;1.05;;;;;;;-145.63;56.24;39344.97;5046271;28;20375;-66
2023/10/08 12:21:47;;;;;;;1.45;1.05;;;;;;;-145.63;57.03;39360.63;5043189;28;20111;-66
2023/10/08 12:24:13;;;;;;;1.17;1.00;;;;;;;-145.63;57.21;39384.09;5040618;28;20017;-66
2023/10/08 12:26:46;;;;;;;1.10;1.00;;;;;;;-145.63;57.36;39399.75;5044350;28;20017;-66
2023/10/08 12:29:17;;;;;;;2.45;1.10;;;;;;;-145.63;57.56;39358.66;5046320;28;20029;-66
2023/10/08 12:31:47;;;;;;;1.50;1.30;;;;;;;-145.63;56.98;39368.44;5041691;28;20028;-68
2023/10/08 12:34:14;;;;;;;1.97;1.00;;;;;;;-145.63;57.25;39376.28;5045900;28;20442;-67
2023/10/08 12:36:42;;;;;;;1.27;1.00;;;;;;;-145.63;56.61;39386.06;5046312;28;20021;-67
2023/10/08 12:39:14;;;;;;;1.05;0.90;;;;;;;-145.63;57.26;39384.09;5044823;28;20026;-65
2023/10/08 12:41:46;;;;;;;1.05;0.90;;;;;;;-145.63;56.66;39384.09;5046035;28;20029;-66
2023/10/08 12:44:12;;;;;;;1.83;1.00;;;;;;;-145.63;57.31;39403.66;5044842;28;20124;-66
2023/10/08 12:46:38;;;;;;;1.55;0.90;;;;;;;-145.63;57.32;39354.75;5043640;28;20035;-66
2023/10/08 12:49:04;;;;;;;1.02;0.90;;;;;;;-145.63;57.38;39358.66;5045742;28;20025;-65